< Typhoon 200516 2005 Season Typhoon 200518 >
Typhoon 200517 (SAOLA)
General InformationTrack Information on Google MapsDetailed Wind InformationAccess Analytics MapList of All Images || NewsDisaster Info.WeblogTrackbackTyphoon FrontResourceGoogle EarthGE AnimationAtom FeedGeoJSON
Detalied Best Track (Time Zone = UTC)
Year Month Day Hour Lat. Long. Pressure (hPa) Wind (kt) Class Image Chart
2005 9 19 00 19.9 155.1 1010 0 2 Image Chart
2005 9 19 06 20.2 154.4 1008 0 2 Image Chart
2005 9 19 12 20.5 153.7 1008 0 2 Image Chart
2005 9 19 18 20.8 153.0 1004 0 2 Image Chart
2005 9 20 00 21.3 152.4 1002 0 2 Image Chart
2005 9 20 06 21.6 152.0 1000 0 2 Image Chart
2005 9 20 12 21.9 151.5 1000 0 2 Image Chart
2005 9 20 18 22.3 151.1 998 35 3 Image Chart
2005 9 21 00 22.6 150.6 996 40 3 Image Chart
2005 9 21 06 23.1 149.9 990 45 3 Image Chart
2005 9 21 12 23.5 149.0 985 50 4 Image Chart
2005 9 21 18 24.2 147.3 980 55 4 Image Chart
2005 9 22 00 24.6 146.0 975 65 5 Image Chart
2005 9 22 06 25.2 144.3 970 70 5 Image Chart
2005 9 22 09 25.3 143.6 965 70 5 Image Chart
2005 9 22 12 25.6 142.8 955 75 5 Image Chart
2005 9 22 15 26.0 142.1 955 75 5 Image Chart
2005 9 22 18 26.4 141.3 955 75 5 Image Chart
2005 9 22 21 26.7 140.7 955 75 5 Image Chart
2005 9 23 00 27.2 140.2 955 75 5 Image Chart
2005 9 23 03 27.5 139.5 955 75 5 Image Chart
2005 9 23 06 27.6 139.2 950 80 5 Image Chart
2005 9 23 09 28.0 139.0 950 80 5 Image Chart
2005 9 23 12 28.4 138.7 950 80 5 Image Chart
2005 9 23 15 28.7 138.6 950 80 5 Image Chart
2005 9 23 18 29.1 138.3 950 80 5 Image Chart
2005 9 23 21 29.3 138.0 950 80 5 Image Chart
2005 9 24 00 29.7 137.8 950 80 5 Image Chart
2005 9 24 03 30.1 137.9 950 80 5 Image Chart
2005 9 24 06 30.4 138.0 950 80 5 Image Chart
2005 9 24 09 30.8 138.3 950 80 5 Image Chart
2005 9 24 12 31.5 138.5 950 80 5 Image Chart
2005 9 24 15 31.8 138.8 950 80 5 Image Chart
2005 9 24 18 32.2 139.2 955 75 5 Image Chart
2005 9 24 21 32.7 139.8 955 75 5 Image Chart
2005 9 25 00 33.1 140.8 955 75 5 Image Chart
2005 9 25 03 34.0 141.8 955 75 5 Image Chart
2005 9 25 06 34.7 142.9 960 75 5 Image Chart
2005 9 25 09 35.4 143.9 960 75 5 Image Chart
2005 9 25 12 35.7 144.7 965 70 5 Image Chart
2005 9 25 18 36.3 146.0 970 65 5 Image Chart
2005 9 26 00 36.9 147.2 975 60 4 Image Chart
2005 9 26 06 37.8 148.9 980 55 4 Image Chart
2005 9 26 12 38.9 151.2 992 0 6 Image Chart
2005 9 26 18 39.4 154.0 992 0 6 Image Chart
2005 9 27 00 40.4 159.4 996 0 6 Image Chart
2005 9 27 06 40.8 165.1 1000 0 6 Image Chart
2005 9 27 12 41.5 171.7 1002 0 6 Image Chart
2005 9 27 18 42.2 178.4 1002 0 6 Image Chart
2005 9 28 00 42.2 184.4 1002 0 6 Image Chart
Japan Meteorological Agency Best Track Data | Correction Date : 2005-12-19
< Typhoon 200516 2005 Season Typhoon 200518 >

Help